Time;durP1;ratioP1;P1;durP2;ratioP2;P2;SDS_P1;SDS_P2;PMS_P1;PMS_P2;Temp;Humidity;BMP_temperature;BMP_pressure;BME280_temperature;BME280_humidity;BME280_pressure;Samples;Min_cycle;Max_cycle;Signal;HPM_P1;HPM_P2
2023/10/20 00:00:37;;;;;;;75.00;39.90;;;;;;;7.28;100.00;98622.17;105561;1255;69202;-58
2023/10/20 00:03:25;;;;;;;77.10;38.60;;;;;;;7.27;100.00;98613.05;105617;1253;69077;-59
2023/10/20 00:05:53;;;;;;;75.10;39.70;;;;;;;7.28;100.00;98610.56;105542;1256;72787;-58
2023/10/20 00:08:22;;;;;;;77.50;39.60;;;;;;;7.27;100.00;98603.29;105521;1255;81508;-58
2023/10/20 00:10:50;;;;;;;81.40;42.00;;;;;;;7.26;100.00;98604.39;105577;1253;70816;-58
2023/10/20 00:13:19;;;;;;;79.20;40.40;;;;;;;7.23;100.00;98607.50;105553;1256;69187;-58
2023/10/20 00:15:47;;;;;;;75.20;39.40;;;;;;;7.20;100.00;98606.77;105614;1255;69219;-58
2023/10/20 00:18:15;;;;;;;84.90;41.40;;;;;;;7.21;100.00;98614.25;105550;1253;72900;-58
2023/10/20 00:20:43;;;;;;;83.30;42.30;;;;;;;7.20;100.00;98610.61;105584;1255;81241;-58
2023/10/20 00:23:14;;;;;;;83.70;42.60;;;;;;;7.20;100.00;98607.30;105513;1253;73005;-58
2023/10/20 00:25:44;;;;;;;82.80;42.70;;;;;;;7.20;100.00;98605.42;105552;1253;69188;-58
2023/10/20 00:28:12;;;;;;;85.00;40.50;;;;;;;7.19;100.00;98600.43;105550;1256;69721;-59
2023/10/20 00:30:41;;;;;;;82.60;42.80;;;;;;;7.16;100.00;98604.38;105515;1253;71500;-58
2023/10/20 00:33:09;;;;;;;82.60;41.90;;;;;;;7.16;100.00;98615.32;105559;1255;81551;-58
2023/10/20 00:35:38;;;;;;;80.10;40.60;;;;;;;7.15;100.00;98618.83;105621;1254;72927;-58
2023/10/20 00:38:06;;;;;;;84.30;40.80;;;;;;;7.16;100.00;98615.67;105579;1256;69196;-58
2023/10/20 00:40:35;;;;;;;90.90;43.90;;;;;;;7.17;100.00;98608.17;105523;1253;69110;-58
2023/10/20 00:43:03;;;;;;;92.30;44.10;;;;;;;7.18;100.00;98599.10;105580;1253;72814;-59
2023/10/20 00:45:31;;;;;;;81.70;40.60;;;;;;;7.16;100.00;98598.83;105606;1254;80468;-59
2023/10/20 00:48:00;;;;;;;92.90;45.30;;;;;;;7.15;100.00;98601.83;105557;1253;71718;-58
2023/10/20 00:50:28;;;;;;;85.70;42.40;;;;;;;7.13;100.00;98599.34;105571;1256;69170;-58
2023/10/20 00:52:56;;;;;;;84.30;43.50;;;;;;;7.15;100.00;98599.77;105499;1257;69273;-58
2023/10/20 00:55:25;;;;;;;89.00;44.80;;;;;;;7.16;100.00;98598.66;105337;1258;73132;-58
2023/10/20 00:57:54;;;;;;;83.60;42.10;;;;;;;7.17;100.00;98590.77;105516;1255;81422;-59
2023/10/20 01:00:22;;;;;;;85.40;42.70;;;;;;;7.19;100.00;98586.91;105472;1253;70724;-58
2023/10/20 01:02:53;;;;;;;96.10;44.80;;;;;;;7.18;100.00;98582.92;105488;1255;69280;-58
2023/10/20 01:05:24;;;;;;;87.30;43.90;;;;;;;7.15;100.00;98575.61;105598;1252;69092;-58
2023/10/20 01:07:53;;;;;;;84.90;44.40;;;;;;;7.13;100.00;98561.27;105546;1253;71608;-58
2023/10/20 01:10:22;;;;;;;87.50;43.20;;;;;;;7.13;100.00;98558.87;105478;1254;81818;-58
2023/10/20 01:12:50;;;;;;;88.40;43.00;;;;;;;7.12;100.00;98560.48;105560;1253;70544;-58
2023/10/20 01:15:18;;;;;;;85.80;42.30;;;;;;;7.11;100.00;98559.33;105478;1253;69115;-58
2023/10/20 01:17:46;;;;;;;84.00;40.20;;;;;;;7.11;100.00;98563.52;105480;1253;69103;-58
2023/10/20 01:20:15;;;;;;;85.60;43.10;;;;;;;7.11;100.00;98564.69;105540;1253;73173;-58
2023/10/20 01:22:44;;;;;;;85.30;42.60;;;;;;;7.12;100.00;98561.85;105456;1253;81523;-58
2023/10/20 01:25:13;;;;;;;83.60;41.90;;;;;;;7.13;100.00;98560.22;105505;1256;71804;-58
2023/10/20 01:27:41;;;;;;;85.60;42.20;;;;;;;7.14;100.00;98564.52;105458;1256;69187;-59
2023/10/20 01:30:13;;;;;;;90.40;43.40;;;;;;;7.18;100.00;98565.77;105556;1253;69154;-58
2023/10/20 01:32:42;;;;;;;85.20;42.10;;;;;;;7.18;100.00;98560.15;105502;1253;74167;-58
2023/10/20 01:35:10;;;;;;;84.70;41.30;;;;;;;7.20;100.00;98560.41;105534;1254;81655;-58
2023/10/20 01:37:40;;;;;;;84.20;42.20;;;;;;;7.21;100.00;98561.60;105580;1254;72078;-58
2023/10/20 01:40:11;;;;;;;82.00;40.60;;;;;;;7.19;100.00;98553.69;105596;1253;69055;-58
2023/10/20 01:42:40;;;;;;;81.70;41.50;;;;;;;7.20;100.00;98551.02;105454;1252;69175;-59
2023/10/20 01:45:09;;;;;;;84.10;42.20;;;;;;;7.21;100.00;98551.13;105599;1253;73402;-58
2023/10/20 01:47:38;;;;;;;81.30;40.60;;;;;;;7.21;100.00;98548.56;105566;1256;82635;-59
2023/10/20 01:50:08;;;;;;;78.90;39.90;;;;;;;7.20;100.00;98542.15;105541;1253;71676;-58
2023/10/20 01:52:37;;;;;;;73.80;38.10;;;;;;;7.21;100.00;98535.00;105512;1256;69174;-58
2023/10/20 01:55:05;;;;;;;81.40;40.40;;;;;;;7.23;100.00;98531.92;105520;1255;69241;-58
2023/10/20 01:57:34;;;;;;;80.10;39.80;;;;;;;7.23;100.00;98526.88;105520;1253;74079;-58
2023/10/20 02:00:05;;;;;;;84.90;40.10;;;;;;;7.25;100.00;98528.02;105482;1255;82153;-59
2023/10/20 02:02:40;;;;;;;79.80;39.90;;;;;;;7.25;100.00;98522.25;105492;1253;72098;-58
2023/10/20 02:05:08;;;;;;;85.00;42.40;;;;;;;7.24;100.00;98517.96;105510;1259;69199;-58
2023/10/20 02:07:37;;;;;;;78.80;40.00;;;;;;;7.25;100.00;98513.61;105527;1255;69136;-58
2023/10/20 02:10:06;;;;;;;79.40;39.60;;;;;;;7.26;100.00;98500.67;105616;1256;73056;-58
2023/10/20 02:12:35;;;;;;;80.00;39.80;;;;;;;7.26;100.00;98493.05;105564;1255;83026;-58
2023/10/20 02:15:06;;;;;;;84.70;41.30;;;;;;;7.23;100.00;98490.39;105540;1253;71794;-58
2023/10/20 02:17:35;;;;;;;75.00;39.90;;;;;;;7.23;100.00;98490.41;105459;1259;69078;-58
2023/10/20 02:20:04;;;;;;;82.60;41.00;;;;;;;7.23;100.00;98481.73;105521;1253;69006;-59
2023/10/20 02:22:32;;;;;;;81.20;40.00;;;;;;;7.24;100.00;98483.59;105532;1256;72938;-58
2023/10/20 02:25:00;;;;;;;77.80;39.30;;;;;;;7.24;100.00;98484.25;105503;1253;81577;-58
2023/10/20 02:27:29;;;;;;;83.40;42.00;;;;;;;7.27;100.00;98488.12;105507;1256;71661;-59
2023/10/20 02:29:58;;;;;;;79.20;39.10;;;;;;;7.28;100.00;98490.52;105540;1256;69122;-58
2023/10/20 02:32:26;;;;;;;76.80;40.20;;;;;;;7.28;100.00;98489.08;105661;1255;69180;-58
2023/10/20 02:34:55;;;;;;;75.50;38.50;;;;;;;7.29;100.00;98488.55;105586;1253;72617;-59
2023/10/20 02:37:24;;;;;;;78.90;41.10;;;;;;;7.29;100.00;98491.63;105548;1254;82724;-58
2023/10/20 02:39:52;;;;;;;80.30;40.30;;;;;;;7.29;100.00;98482.44;105474;1255;72161;-58
2023/10/20 02:42:20;;;;;;;76.70;39.00;;;;;;;7.28;100.00;98481.80;105514;1255;69113;-58
2023/10/20 02:44:49;;;;;;;78.50;39.00;;;;;;;7.28;100.00;98489.27;105498;1256;69154;-59
2023/10/20 02:47:17;;;;;;;74.80;39.60;;;;;;;7.26;100.00;98482.60;105472;1256;73998;-58
2023/10/20 02:49:45;;;;;;;77.20;39.00;;;;;;;7.25;100.00;98479.89;105516;1253;82547;-59
2023/10/20 02:52:13;;;;;;;72.70;37.70;;;;;;;7.24;100.00;98477.67;105477;1253;72008;-58
2023/10/20 02:54:41;;;;;;;72.20;38.60;;;;;;;7.24;100.00;98485.48;105458;1253;69167;-58
2023/10/20 02:57:10;;;;;;;68.20;37.30;;;;;;;7.22;100.00;98482.99;105460;1255;69236;-58
2023/10/20 02:59:38;;;;;;;73.10;37.20;;;;;;;7.24;100.00;98485.35;105494;1253;74285;-58
2023/10/20 03:02:06;;;;;;;81.20;38.90;;;;;;;7.25;100.00;98490.49;105482;1255;81583;-59
2023/10/20 03:04:36;;;;;;;81.50;39.40;;;;;;;7.24;100.00;98499.58;105483;1253;71948;-58
2023/10/20 03:07:05;;;;;;;;;;;;;;;7.23;100.00;98500.81;105489;1253;69189;-59
2023/10/20 03:09:33;;;;;;;74.40;37.00;;;;;;;7.21;100.00;98501.11;105451;1253;69246;-58
2023/10/20 03:12:02;;;;;;;75.90;36.90;;;;;;;7.20;100.00;98499.77;105485;1254;72946;-59
2023/10/20 03:14:34;;;;;;;76.90;38.30;;;;;;;7.20;100.00;98498.59;105585;1253;81708;-58
2023/10/20 03:17:03;;;;;;;76.20;38.90;;;;;;;7.20;100.00;98496.64;105517;1256;71450;-58
2023/10/20 03:19:31;;;;;;;78.90;38.70;;;;;;;7.20;100.00;98493.52;105466;1256;69116;-58
2023/10/20 03:22:00;;;;;;;77.80;39.90;;;;;;;7.22;100.00;98487.54;105479;1253;69107;-58
2023/10/20 03:24:29;;;;;;;85.10;39.30;;;;;;;7.23;100.00;98481.73;105509;1255;72233;-59
2023/10/20 03:26:57;;;;;;;83.70;40.90;;;;;;;7.23;100.00;98485.91;105527;1255;81432;-59
2023/10/20 03:29:25;;;;;;;82.00;42.00;;;;;;;7.22;100.00;98487.69;105502;1253;71877;-58
2023/10/20 03:31:54;;;;;;;78.10;39.80;;;;;;;7.21;100.00;98486.04;105474;1254;69138;-58
2023/10/20 03:34:22;;;;;;;86.60;42.60;;;;;;;7.21;100.00;98483.39;105470;1256;69144;-59
2023/10/20 03:36:52;;;;;;;77.90;38.90;;;;;;;7.21;100.00;98475.62;105466;1256;71831;-59
2023/10/20 03:39:20;;;;;;;80.00;38.50;;;;;;;7.19;100.00;98473.10;105471;1255;81407;-58
2023/10/20 03:41:49;;;;;;;78.10;38.40;;;;;;;7.17;100.00;98474.23;105491;1253;71726;-59
2023/10/20 03:44:21;;;;;;;70.50;35.60;;;;;;;7.18;100.00;98472.44;105491;1256;69123;-59
2023/10/20 03:46:56;;;;;;;68.60;34.70;;;;;;;7.17;100.00;98469.88;105487;1257;69221;-59
2023/10/20 03:49:24;;;;;;;66.50;35.70;;;;;;;7.19;100.00;98473.60;105507;1253;73187;-59
2023/10/20 03:51:53;;;;;;;66.10;32.90;;;;;;;7.19;100.00;98473.60;105477;1256;81941;-59
2023/10/20 03:54:24;;;;;;;61.20;31.60;;;;;;;7.19;100.00;98476.52;105470;1256;72037;-58
2023/10/20 03:56:56;;;;;;;59.40;31.60;;;;;;;7.21;100.00;98476.45;105507;1255;69204;-58
2023/10/20 03:59:24;;;;;;;58.50;30.50;;;;;;;7.21;100.00;98481.33;105497;1253;69196;-59
2023/10/20 04:01:52;;;;;;;60.10;31.20;;;;;;;7.19;100.00;98467.55;105509;1255;74618;-59
2023/10/20 04:04:20;;;;;;;56.40;30.70;;;;;;;7.20;100.00;98458.63;105490;1254;83593;-59
2023/10/20 04:06:49;;;;;;;56.70;29.70;;;;;;;7.20;100.00;98458.44;105489;1253;72746;-59
2023/10/20 04:09:18;;;;;;;55.70;29.40;;;;;;;7.20;100.00;98464.50;105544;1254;69673;-59
2023/10/20 04:11:46;;;;;;;51.50;26.80;;;;;;;7.23;100.00;98461.95;105516;1256;69240;-59
2023/10/20 04:14:15;;;;;;;48.10;26.80;;;;;;;7.23;100.00;98463.14;105558;1253;73967;-59
2023/10/20 04:16:45;;;;;;;45.40;25.60;;;;;;;7.21;100.00;98465.54;105547;1255;82472;-59
2023/10/20 04:19:14;;;;;;;49.00;25.50;;;;;;;7.20;100.00;98467.82;105546;1254;71325;-59
2023/10/20 04:21:43;;;;;;;47.90;26.40;;;;;;;7.20;100.00;98464.18;105520;1253;69190;-59
2023/10/20 04:24:11;;;;;;;44.50;23.10;;;;;;;7.20;100.00;98466.47;105516;1253;69095;-59
2023/10/20 04:26:44;;;;;;;44.40;23.60;;;;;;;7.18;100.00;98461.68;105496;1255;72948;-59
2023/10/20 04:43:37;;;;;;;33.10;19.30;;;;;;;7.19;100.00;98458.31;105457;1255;81446;-59
2023/10/20 04:51:24;;;;;;;31.30;18.90;;;;;;;7.21;100.00;98454.76;105334;1256;69191;-58
2023/10/20 04:53:53;;;;;;;31.70;18.30;;;;;;;7.22;100.00;98454.00;105528;1253;72869;-58
2023/10/20 04:56:38;;;;;;;34.00;19.40;;;;;;;7.22;100.00;98461.67;105511;1255;81574;-58
2023/10/20 04:59:10;;;;;;;29.30;17.90;;;;;;;7.23;100.00;98458.14;105564;1255;72725;-58
2023/10/20 05:01:46;;;;;;;32.80;18.60;;;;;;;7.23;100.00;98451.16;105483;1256;69126;-58
2023/10/20 05:04:24;;;;;;;31.90;18.30;;;;;;;7.23;100.00;98451.34;105530;1256;69212;-58
2023/10/20 05:07:05;;;;;;;32.10;17.70;;;;;;;7.25;100.00;98446.86;105495;1254;72045;-58
2023/10/20 05:09:40;;;;;;;34.20;19.80;;;;;;;7.28;100.00;98436.98;105567;1256;81735;-58
2023/10/20 05:12:09;;;;;;;43.60;20.90;;;;;;;7.26;100.00;98427.00;105507;1256;71702;-58
2023/10/20 05:14:37;;;;;;;33.10;19.40;;;;;;;7.25;100.00;98422.02;105551;1253;69084;-58
2023/10/20 05:17:10;;;;;;;33.50;19.60;;;;;;;7.27;100.00;98420.05;105535;1255;69185;-58
2023/10/20 05:19:39;;;;;;;34.80;20.10;;;;;;;7.26;100.00;98416.93;105539;1256;74245;-58
2023/10/20 05:22:09;;;;;;;34.80;19.40;;;;;;;7.26;100.00;98414.68;105564;1253;81572;-58
2023/10/20 05:24:37;;;;;;;34.20;19.70;;;;;;;7.24;100.00;98417.58;105484;1253;70461;-58
2023/10/20 05:27:05;;;;;;;32.20;19.50;;;;;;;7.23;100.00;98408.43;105505;1254;69142;-58
2023/10/20 05:29:33;;;;;;;34.60;20.60;;;;;;;7.22;100.00;98406.55;105510;1256;69183;-58
2023/10/20 05:32:06;;;;;;;37.00;22.20;;;;;;;7.24;100.00;98403.69;105478;1256;72007;-56
2023/10/20 05:34:34;;;;;;;37.20;21.30;;;;;;;7.22;100.00;98403.30;105509;1255;81369;-53
2023/10/20 05:37:04;;;;;;;36.70;21.60;;;;;;;7.20;100.00;98403.20;105506;1259;71616;-53
2023/10/20 05:39:32;;;;;;;35.70;22.20;;;;;;;7.20;100.00;98403.02;105769;1256;69166;-50
2023/10/20 05:42:04;;;;;;;37.60;22.40;;;;;;;7.21;100.00;98409.08;105589;1256;69756;-51
2023/10/20 05:44:33;;;;;;;39.40;22.10;;;;;;;7.21;100.00;98412.20;105579;1256;73370;-54
2023/10/20 05:47:04;;;;;;;40.70;23.70;;;;;;;7.20;100.00;98415.70;105693;1266;83197;-54
2023/10/20 05:49:32;;;;;;;34.60;23.00;;;;;;;7.19;100.00;98422.73;105579;1253;71854;-52
2023/10/20 05:52:00;;;;;;;39.90;22.80;;;;;;;7.20;100.00;98431.02;105542;1254;69939;-55
2023/10/20 05:54:30;;;;;;;38.80;23.80;;;;;;;7.22;100.00;98430.22;105781;1255;69171;-49
2023/10/20 05:56:58;;;;;;;38.40;23.90;;;;;;;7.23;100.00;98427.73;105699;1254;73840;-52
2023/10/20 05:59:26;;;;;;;41.10;24.80;;;;;;;7.22;100.00;98423.63;105580;1255;81512;-49
2023/10/20 06:01:55;;;;;;;42.90;26.10;;;;;;;7.21;100.00;98417.40;105512;1257;73008;-53
2023/10/20 06:04:23;;;;;;;42.90;25.90;;;;;;;7.21;100.00;98412.91;105575;1257;69181;-56
2023/10/20 06:06:51;;;;;;;44.30;25.00;;;;;;;7.21;100.00;98409.95;105578;1255;69153;-55
2023/10/20 06:09:19;;;;;;;39.80;24.40;;;;;;;7.21;100.00;98420.70;106026;1255;72725;-55
2023/10/20 06:11:48;;;;;;;43.80;25.80;;;;;;;7.21;100.00;98426.27;105520;1255;81357;-57
2023/10/20 06:14:16;;;;;;;46.10;25.20;;;;;;;7.22;100.00;98436.64;105624;1254;72077;-55
2023/10/20 06:16:44;;;;;;;44.60;26.40;;;;;;;7.21;100.00;98432.52;105494;1259;69184;-50
2023/10/20 06:19:13;;;;;;;42.60;25.60;;;;;;;7.22;100.00;98428.65;105611;1256;69132;-56
2023/10/20 06:21:45;;;;;;;47.20;26.10;;;;;;;7.22;100.00;98425.35;105689;1257;73364;-55
2023/10/20 06:24:14;;;;;;;43.30;25.20;;;;;;;7.20;100.00;98425.80;105599;1266;82694;-55
2023/10/20 06:26:42;;;;;;;46.20;26.30;;;;;;;7.19;100.00;98423.27;105829;1257;70205;-55
2023/10/20 06:29:41;;;;;;;46.00;26.30;;;;;;;7.17;100.00;98420.91;105602;1256;69269;-56
2023/10/20 06:34:41;;;;;;;47.70;27.20;;;;;;;7.19;100.00;98418.38;105583;1255;73013;-54
2023/10/20 06:37:13;;;;;;;46.70;28.20;;;;;;;7.20;100.00;98417.27;105667;1257;81682;-53
2023/10/20 06:39:42;;;;;;;54.60;28.90;;;;;;;7.21;100.00;98415.52;105639;1257;71912;-54
2023/10/20 06:42:10;;;;;;;49.30;28.50;;;;;;;7.21;100.00;98407.69;105596;1254;69189;-52
2023/10/20 06:44:39;;;;;;;51.30;27.80;;;;;;;7.20;100.00;98389.66;105710;1256;69135;-54
2023/10/20 06:47:08;;;;;;;50.40;27.60;;;;;;;7.18;100.00;98382.66;105497;1257;73155;-53
2023/10/20 06:49:36;;;;;;;53.50;27.70;;;;;;;7.18;100.00;98382.16;105581;1258;81370;-53
2023/10/20 06:52:04;;;;;;;53.90;28.40;;;;;;;7.16;100.00;98381.02;105699;1258;73055;-51
2023/10/20 06:54:32;;;;;;;55.60;29.70;;;;;;;7.17;100.00;98379.59;105558;1256;69159;-55
2023/10/20 06:57:01;;;;;;;47.40;26.70;;;;;;;7.18;100.00;98382.16;105939;1259;69111;-56
2023/10/20 06:59:29;;;;;;;51.60;27.60;;;;;;;7.19;100.00;98373.56;105536;1257;73215;-56
2023/10/20 07:02:00;;;;;;;48.50;27.90;;;;;;;7.20;100.00;98367.93;105513;1256;82043;-55
2023/10/20 07:04:29;;;;;;;52.80;29.00;;;;;;;7.21;100.00;98368.60;105547;1257;72118;-55
2023/10/20 07:06:58;;;;;;;53.00;28.70;;;;;;;7.22;100.00;98368.55;105605;1259;69183;-56
2023/10/20 07:09:26;;;;;;;53.30;29.00;;;;;;;7.21;100.00;98369.98;105642;1256;69092;-53
2023/10/20 07:11:55;;;;;;;54.40;29.30;;;;;;;7.21;100.00;98370.83;105572;1257;72802;-54
2023/10/20 07:14:23;;;;;;;53.50;27.10;;;;;;;7.22;100.00;98373.20;105564;1257;80270;-53
2023/10/20 07:16:51;;;;;;;49.70;28.50;;;;;;;7.24;100.00;98378.87;105483;1256;71538;-52
2023/10/20 07:19:19;;;;;;;50.20;28.40;;;;;;;7.26;100.00;98368.66;105504;1254;69164;-54
2023/10/20 07:21:50;;;;;;;53.40;29.20;;;;;;;7.27;100.00;98361.45;105498;1258;69200;-50
2023/10/20 07:24:18;;;;;;;51.90;27.80;;;;;;;7.28;100.00;98358.81;105648;1256;72624;-53
2023/10/20 07:26:46;;;;;;;46.50;26.60;;;;;;;7.31;100.00;98353.94;105467;1257;82570;-51
2023/10/20 07:29:14;;;;;;;49.80;27.50;;;;;;;7.34;100.00;98354.80;105512;1267;72507;-52
2023/10/20 07:31:45;;;;;;;49.80;28.70;;;;;;;7.38;100.00;98356.34;105519;1257;69940;-51
2023/10/20 07:34:14;;;;;;;50.20;27.90;;;;;;;7.41;100.00;98356.20;105586;1259;69199;-54
2023/10/20 07:36:45;;;;;;;56.20;29.00;;;;;;;7.43;100.00;98352.56;105716;1256;71852;-53
2023/10/20 07:39:16;;;;;;;;;;;;;;;7.44;100.00;98352.89;105611;1257;83101;-57
2023/10/20 07:41:44;;;;;;;52.90;27.80;;;;;;;7.42;100.00;98343.93;105490;1265;70911;-55
2023/10/20 07:44:13;;;;;;;45.60;27.80;;;;;;;7.43;100.00;98337.80;105635;1257;69175;-57
2023/10/20 07:46:42;;;;;;;52.20;29.20;;;;;;;7.48;100.00;98332.30;105850;1256;69236;-57
2023/10/20 07:49:13;;;;;;;45.00;26.40;;;;;;;7.52;100.00;98324.27;105640;1258;73338;-57
2023/10/20 07:51:41;;;;;;;51.30;28.50;;;;;;;7.55;100.00;98316.41;105506;1257;83198;-58
2023/10/20 07:54:09;;;;;;;45.70;26.30;;;;;;;7.56;100.00;98306.98;105701;1253;71582;-50
2023/10/20 07:56:38;;;;;;;47.00;26.60;;;;;;;7.60;100.00;98307.12;105623;1254;69054;-56
2023/10/20 07:59:07;;;;;;;43.40;25.30;;;;;;;7.62;100.00;98305.09;105662;1256;69113;-53
2023/10/20 08:01:36;;;;;;;44.60;26.50;;;;;;;7.62;100.00;98305.27;105702;1257;72785;-51
2023/10/20 08:04:05;;;;;;;46.10;26.90;;;;;;;7.63;100.00;98299.64;105491;1258;81482;-50
2023/10/20 08:06:34;;;;;;;44.20;25.60;;;;;;;7.64;100.00;98288.10;105844;1254;71361;-54
2023/10/20 08:09:04;;;;;;;44.00;25.40;;;;;;;7.65;100.00;98291.55;105599;1254;69023;-56
2023/10/20 08:11:32;;;;;;;42.00;25.10;;;;;;;7.66;100.00;98283.64;105545;1258;69061;-57
2023/10/20 08:14:01;;;;;;;43.70;25.30;;;;;;;7.68;100.00;98275.20;105528;1257;73858;-57
2023/10/20 08:16:29;;;;;;;45.70;25.60;;;;;;;7.70;100.00;98271.77;105609;1266;81508;-51
2023/10/20 08:18:58;;;;;;;42.00;23.70;;;;;;;7.72;100.00;98269.75;105536;1257;71495;-61
2023/10/20 08:21:29;;;;;;;45.50;25.00;;;;;;;7.72;100.00;98267.61;105636;1264;69135;-54
2023/10/20 08:23:58;;;;;;;38.40;24.40;;;;;;;7.75;100.00;98269.40;105671;1256;69176;-54
2023/10/20 08:26:26;;;;;;;41.90;25.00;;;;;;;7.77;100.00;98270.61;105678;1254;74287;-52
2023/10/20 08:28:54;;;;;;;40.70;23.50;;;;;;;7.78;100.00;98269.33;105531;1259;82724;-57
2023/10/20 08:31:23;;;;;;;41.20;24.60;;;;;;;7.79;100.00;98263.25;105473;1258;71957;-59
2023/10/20 08:33:52;;;;;;;38.00;23.70;;;;;;;7.77;100.00;98258.80;105571;1255;69199;-59
2023/10/20 08:36:21;;;;;;;38.00;23.60;;;;;;;7.76;100.00;98259.23;105534;1254;69045;-58
2023/10/20 08:38:51;;;;;;;37.40;22.80;;;;;;;7.78;100.00;98261.53;105590;1255;73745;-57
2023/10/20 08:41:24;;;;;;;39.70;24.20;;;;;;;7.78;100.00;98253.52;105591;1257;80827;-58
2023/10/20 08:43:53;;;;;;;38.70;25.20;;;;;;;7.78;100.00;98248.31;105508;1255;70549;-56
2023/10/20 08:46:23;;;;;;;40.30;25.10;;;;;;;7.77;100.00;98252.72;105513;1254;69078;-57
2023/10/20 08:48:52;;;;;;;35.50;22.60;;;;;;;7.77;100.00;98255.02;105486;1257;69154;-58
2023/10/20 08:51:21;;;;;;;39.40;25.30;;;;;;;7.76;100.00;98251.23;105524;1254;72926;-55
2023/10/20 08:53:49;;;;;;;44.20;26.20;;;;;;;7.77;100.00;98250.45;105541;1257;82763;-57
2023/10/20 08:56:18;;;;;;;38.00;24.80;;;;;;;7.74;100.00;98249.78;105407;1257;71610;-57
2023/10/20 08:58:46;;;;;;;39.90;25.00;;;;;;;7.73;100.00;98241.35;105459;1264;69073;-57
2023/10/20 09:01:16;;;;;;;42.40;25.60;;;;;;;7.75;100.00;98236.87;105476;1257;69201;-56
2023/10/20 09:03:48;;;;;;;37.60;24.10;;;;;;;7.78;100.00;98227.83;105409;1254;74298;-57
2023/10/20 09:06:17;;;;;;;37.30;25.60;;;;;;;7.78;100.00;98219.29;105364;1257;217597;-58
2023/10/20 09:08:50;;;;;;;39.30;25.10;;;;;;;7.77;100.00;98220.92;105490;1253;72257;-59
2023/10/20 09:11:30;;;;;;;40.60;24.80;;;;;;;7.76;100.00;98216.31;105494;1254;69132;-59
2023/10/20 09:14:00;;;;;;;38.80;25.10;;;;;;;7.75;100.00;98208.89;105487;1257;69215;-58
2023/10/20 09:16:29;;;;;;;37.20;24.40;;;;;;;7.74;100.00;98207.57;105505;1258;73211;-59
2023/10/20 09:18:57;;;;;;;40.80;24.50;;;;;;;7.75;100.00;98205.55;105507;1257;82708;-59
2023/10/20 09:21:28;;;;;;;36.20;22.70;;;;;;;7.76;100.00;98204.25;105477;1257;71967;-59
2023/10/20 09:23:56;;;;;;;34.80;23.90;;;;;;;7.80;100.00;98202.48;105554;1256;69631;-59
2023/10/20 09:26:27;;;;;;;38.90;22.90;;;;;;;7.81;100.00;98205.90;105510;1254;70650;-57
2023/10/20 09:28:56;;;;;;;38.70;23.00;;;;;;;7.81;100.00;98208.84;105563;1256;72898;-57
2023/10/20 09:31:27;;;;;;;38.90;24.50;;;;;;;7.85;100.00;98205.88;105552;1254;81031;-56
2023/10/20 09:33:56;;;;;;;36.10;23.90;;;;;;;7.83;100.00;98201.77;105558;1257;71435;-58
2023/10/20 09:36:24;;;;;;;40.70;23.80;;;;;;;7.84;100.00;98195.62;105355;1259;69090;-58
2023/10/20 09:38:54;;;;;;;35.20;23.10;;;;;;;7.84;100.00;98197.91;105537;1256;69029;-57
2023/10/20 09:41:28;;;;;;;37.50;23.50;;;;;;;7.85;100.00;98194.75;105619;1254;73105;-58
2023/10/20 09:44:07;;;;;;;39.00;24.50;;;;;;;7.82;100.00;98193.17;105535;1256;81389;-58
2023/10/20 09:46:38;;;;;;;41.80;24.50;;;;;;;7.81;100.00;98194.77;105550;1257;71933;-58
2023/10/20 09:49:27;;;;;;;41.40;23.50;;;;;;;7.81;100.00;98187.64;105554;1256;69122;-55
2023/10/20 09:51:56;;;;;;;41.60;24.40;;;;;;;7.81;100.00;98189.02;105571;1257;69198;-57
2023/10/20 09:54:30;;;;;;;36.30;22.90;;;;;;;7.80;100.00;98186.83;105563;1252;72840;-56
2023/10/20 09:56:59;;;;;;;41.80;25.80;;;;;;;7.79;100.00;98179.94;105560;1255;81519;-57
2023/10/20 09:59:30;;;;;;;39.30;25.70;;;;;;;7.78;100.00;98171.48;105475;1254;70408;-58
2023/10/20 10:01:59;;;;;;;45.00;26.00;;;;;;;7.77;100.00;98170.48;105590;1252;69201;-58
2023/10/20 10:04:33;;;;;;;39.90;24.80;;;;;;;7.78;100.00;98167.85;105633;1256;69187;-58
2023/10/20 10:07:05;;;;;;;42.50;25.70;;;;;;;7.80;100.00;98167.17;105472;1257;72174;-58
2023/10/20 10:09:38;;;;;;;47.90;26.80;;;;;;;7.79;100.00;98169.66;105538;1256;81827;-58
2023/10/20 10:12:08;;;;;;;45.70;28.00;;;;;;;7.77;100.00;98165.28;105533;1257;71613;-58
2023/10/20 10:14:37;;;;;;;43.80;27.60;;;;;;;7.78;100.00;98170.10;105533;1258;69129;-58
2023/10/20 10:17:09;;;;;;;42.60;26.90;;;;;;;7.76;100.00;98161.51;105608;1254;69414;-51
2023/10/20 10:19:50;;;;;;;45.00;27.10;;;;;;;7.76;100.00;98151.61;105566;1257;72115;-56
2023/10/20 10:22:29;;;;;;;52.00;28.20;;;;;;;7.77;100.00;98150.51;105583;1257;81716;-52
2023/10/20 10:25:00;;;;;;;47.80;28.50;;;;;;;7.78;100.00;98149.76;105479;1254;71723;-54
2023/10/20 10:27:29;;;;;;;49.20;29.20;;;;;;;7.78;100.00;98153.23;105599;1256;69173;-55
2023/10/20 10:30:09;;;;;;;43.50;26.50;;;;;;;7.77;100.00;98161.09;105611;1257;69127;-49
2023/10/20 10:32:52;;;;;;;47.80;29.00;;;;;;;7.81;100.00;98160.02;105458;1256;75021;-54
2023/10/20 10:35:20;;;;;;;48.90;28.50;;;;;;;7.85;100.00;98158.55;105511;1254;81844;-53
2023/10/20 10:37:53;;;;;;;46.20;26.70;;;;;;;7.87;100.00;98157.02;105460;1256;73884;-53
2023/10/20 10:40:22;;;;;;;45.80;26.40;;;;;;;7.91;100.00;98164.08;105442;1256;69163;-54
2023/10/20 10:42:52;;;;;;;47.40;25.70;;;;;;;7.92;100.00;98160.88;105542;1256;69990;-56
2023/10/20 10:45:27;;;;;;;47.70;27.10;;;;;;;7.96;100.00;98146.24;105489;1256;71526;-56
2023/10/20 10:48:27;;;;;;;48.70;28.50;;;;;;;7.98;100.00;98146.23;105506;1256;82679;-55
2023/10/20 10:50:56;;;;;;;40.60;25.60;;;;;;;7.98;100.00;98149.39;105576;1256;71851;-54
2023/10/20 10:53:26;;;;;;;44.70;27.50;;;;;;;7.98;100.00;98152.68;105559;1257;69205;-54
2023/10/20 10:55:54;;;;;;;51.90;27.40;;;;;;;7.97;100.00;98154.45;105578;1254;69257;-53
2023/10/20 10:58:23;;;;;;;41.00;26.40;;;;;;;7.98;100.00;98159.46;105529;1254;73899;-51
2023/10/20 11:00:51;;;;;;;40.30;26.10;;;;;;;7.98;100.00;98154.41;105578;1255;81755;-55
2023/10/20 11:03:20;;;;;;;44.50;25.70;;;;;;;8.00;100.00;98158.50;105582;1257;72757;-56
2023/10/20 11:05:52;;;;;;;44.40;26.40;;;;;;;8.02;100.00;98152.64;105569;1258;69137;-58
2023/10/20 11:08:20;;;;;;;46.70;27.40;;;;;;;8.03;100.00;98142.59;105572;1257;69177;-54
2023/10/20 11:10:50;;;;;;;46.20;27.10;;;;;;;8.05;100.00;98138.15;105538;1254;73091;-57
2023/10/20 11:13:20;;;;;;;43.80;26.00;;;;;;;8.05;100.00;98137.63;105652;1257;81559;-57
2023/10/20 11:15:50;;;;;;;44.30;26.50;;;;;;;8.06;100.00;98135.30;105568;1254;70222;-57
2023/10/20 11:18:20;;;;;;;39.80;25.10;;;;;;;8.07;100.00;98128.00;105608;1255;69096;-57
2023/10/20 11:20:49;;;;;;;37.70;24.90;;;;;;;8.09;100.00;98126.80;105584;1257;69121;-57
2023/10/20 11:23:30;;;;;;;42.00;26.10;;;;;;;8.12;100.00;98120.02;105644;1254;72880;-56
2023/10/20 11:26:02;;;;;;;39.10;26.30;;;;;;;8.13;100.00;98110.54;105594;1256;82190;-55
2023/10/20 11:28:30;;;;;;;36.80;24.90;;;;;;;8.14;100.00;98109.76;105603;1255;73052;-57
2023/10/20 11:30:59;;;;;;;35.50;23.70;;;;;;;8.15;100.00;98108.88;105554;1254;69183;-56
2023/10/20 11:33:28;;;;;;;36.60;24.60;;;;;;;8.17;100.00;98110.11;105602;1252;69107;-57
2023/10/20 11:36:00;;;;;;;34.40;23.40;;;;;;;8.19;100.00;98103.55;105612;1255;73329;-57
2023/10/20 11:38:28;;;;;;;40.70;24.20;;;;;;;8.19;100.00;98100.25;105586;1255;81900;-57
2023/10/20 11:40:56;;;;;;;42.50;25.30;;;;;;;8.19;100.00;98100.09;105523;1253;72943;-57
2023/10/20 11:43:25;;;;;;;41.50;25.70;;;;;;;8.19;100.00;98100.73;105538;1257;69191;-57